Red Oak, IA (51566)

6:42 PM CDT on September 03, 2015 (GMT -0500)
NFS-1351 210th St | | Change Station
CLOSE
Current Station
Personal Weather Station
Location: Red Oak, IA
Elevation: 1083 ft
Nearby Weather Stations

Elev 1083 ft 41.00 °N, 95.32 °W | Updated 6 minutes ago

Clear
Clear
85.6 °F
Feels Like 95 °F
N
11.0
Wind Variable Wind from SSE

Today
High -- | Low -- °F
--% Chance of Precip.
Yesterday
High -- | Low -- °F
Precip. -- in
6:49 AM 7:50 PM
Waning Gibbous, 66% visible
Pressure 29.83 in
Visibility 10.0 miles
Clouds Clear
Heat Index 95 °F
Dew Point 76 °F
Humidity 72%
Rainfall 0.00 in
Snow Depth Not available.
UV 1 out of 12
Pollen 11.50 out of 12
Air Quality Not available.
Flu Activity Not available.
METAR KRDK 032335Z AUTO 16009G14KT 10SM CLR 30/23 A2983 RMK AO2
Pressure 29.83 in
Visibility 10.0 miles
Clouds Clear
Heat Index 95 °F
Dew Point 76 °F
Humidity 72%
Rainfall 0.00 in
Snow Depth Not available.
UV 1 out of 12
Pollen 11.50 out of 12
Air Quality Not available.
Flu Activity Not available.
METAR KRDK 032335Z AUTO 16009G14KT 10SM CLR 30/23 A2983 RMK AO2

10-Day Weather Forecast

×

Almanac

Astronomy

Sep. 03, 2015 Rise Set
Actual Time
Civil Twilight
Nautical Twilight
Astronomical Twilight
Moon
Length of Visible Light
Length of Day
Tomorrow will be .
, % of the Moon is Illuminated

Today's Extremes

State Highs State Lows

Community

WunderPhotos

Upload Photos

1,852,063 photos uploaded!

WunderBlogs® & News

Nearby

Air Quality

  Air Quality AQ Index Pollutant
Not available.

Snow Depth

Station Depth Elevation

Earthquake Activity

City Distance Mag. Time & Date
Minimum magnitude displayed is 2.5.

Coastal Water Temperatures

Place Temperature

Stations

Nearby Weather Stations

Station Location Temp. Windchill Dew Point Humidity Wind Precip. Elev Updated Type